Time;durP1;ratioP1;P1;durP2;ratioP2;P2;SDS_P1;SDS_P2;PMS_P1;PMS_P2;Temp;Humidity;BMP_temperature;BMP_pressure;BME280_temperature;BME280_humidity;BME280_pressure;Samples;Min_cycle;Max_cycle;Signal;HPM_P1;HPM_P2
2022/06/04 00:00:27;;;;;;;4.43;2.50;;;;;;;25.18;28.74;101248.44;5051625;28;20067;-82
2022/06/04 00:02:55;;;;;;;3.03;2.28;;;;;;;25.16;28.48;101250.53;5052927;28;20143;-82
2022/06/04 00:05:25;;;;;;;3.20;2.20;;;;;;;25.16;28.63;101246.88;5054241;28;20128;-83
2022/06/04 00:07:53;;;;;;;3.63;2.28;;;;;;;25.10;28.67;101253.19;5052683;28;20041;-82
2022/06/04 00:16:05;;;;;;;4.47;2.10;;;;;;;25.02;28.95;101241.13;5065540;28;20186;-83
2022/06/04 00:18:31;;;;;;;3.47;2.00;;;;;;;25.01;28.78;101244.94;5055348;28;20132;-83
2022/06/04 00:20:58;;;;;;;3.45;2.45;;;;;;;25.01;28.68;101249.63;5055523;28;20123;-82
2022/06/04 00:23:26;;;;;;;3.72;2.40;;;;;;;24.99;29.04;101241.47;5050128;28;20048;-82
2022/06/04 00:25:55;;;;;;;3.22;2.20;;;;;;;25.01;29.03;101253.28;5058617;28;20511;-82
2022/06/04 00:28:24;;;;;;;3.70;2.45;;;;;;;24.99;28.74;101254.50;5042206;28;20135;-83
2022/06/04 00:30:52;;;;;;;3.63;2.08;;;;;;;24.96;28.84;101247.41;5068301;28;20067;-83
2022/06/04 00:33:18;;;;;;;3.10;2.17;;;;;;;24.94;28.86;101251.44;5069935;28;20178;-82
2022/06/04 00:35:48;;;;;;;3.20;2.20;;;;;;;24.94;29.19;101249.53;5075065;28;20554;-82
2022/06/04 00:38:16;;;;;;;3.15;2.28;;;;;;;24.90;28.86;101247.25;5072373;28;20040;-80
2022/06/04 00:40:49;;;;;;;3.47;2.45;;;;;;;24.89;28.89;101237.19;5075891;28;20044;-81
2022/06/04 00:43:17;;;;;;;3.17;2.25;;;;;;;24.83;29.19;101240.72;5056083;28;20048;-80
2022/06/04 00:46:31;;;;;;;3.50;2.50;;;;;;;24.74;28.99;101252.94;5055520;28;20147;-80
2022/06/04 00:48:58;;;;;;;3.58;2.45;;;;;;;24.71;29.18;101261.66;5017991;28;20057;-79
2022/06/04 00:51:25;;;;;;;3.20;2.20;;;;;;;24.70;29.11;101263.56;5049539;28;20079;-80
2022/06/04 00:53:56;;;;;;;3.83;2.35;;;;;;;24.68;29.48;101262.00;5075528;28;20066;-80
2022/06/04 00:56:34;;;;;;;3.40;2.42;;;;;;;24.63;29.73;101259.78;5074091;28;20071;-80
2022/06/04 00:59:37;;;;;;;3.58;2.28;;;;;;;24.58;29.07;101251.13;5067588;28;20136;-80
2022/06/04 01:02:22;;;;;;;;;;;;;;;24.24;29.99;101269.03;5056921;28;20049;-80
2022/06/04 01:04:55;;;;;;;3.55;2.30;;;;;;;24.45;29.27;101271.19;5057328;28;19920;-80
2022/06/04 01:07:22;;;;;;;3.45;2.45;;;;;;;24.47;29.30;101274.63;5058195;28;20060;-80
2022/06/04 01:10:10;;;;;;;4.05;2.30;;;;;;;24.49;29.73;101286.41;5052193;28;20064;-78
2022/06/04 01:13:07;;;;;;;3.13;2.13;;;;;;;24.45;29.67;101296.16;5047410;28;20056;-80
2022/06/04 01:15:48;;;;;;;3.20;2.10;;;;;;;24.44;29.94;101300.00;5058569;28;20110;-80
2022/06/04 01:18:20;;;;;;;4.55;2.70;;;;;;;24.42;30.08;101304.84;5076266;28;20063;-80
2022/06/04 01:21:10;;;;;;;3.67;2.58;;;;;;;24.41;29.87;101310.56;5059504;28;20050;-80
2022/06/04 01:24:09;;;;;;;4.00;2.30;;;;;;;24.40;30.00;101315.25;5075869;28;20044;-80
2022/06/04 01:26:45;;;;;;;3.30;2.20;;;;;;;24.42;29.92;101315.97;5063127;28;20132;-80
2022/06/04 01:29:16;;;;;;;4.15;2.28;;;;;;;24.41;29.96;101317.00;5064163;28;20112;-80
2022/06/04 01:32:19;;;;;;;4.00;2.60;;;;;;;24.40;30.02;101315.25;5061022;28;20131;-81
2022/06/04 01:35:13;;;;;;;3.30;2.05;;;;;;;24.38;30.08;101306.25;5063690;28;20101;-80
2022/06/04 01:37:53;;;;;;;3.20;2.08;;;;;;;24.42;29.91;101307.63;5058994;28;20060;-80
2022/06/04 01:43:13;;;;;;;2.97;1.95;;;;;;;24.39;29.87;101309.88;5069810;28;20053;-80
2022/06/04 01:45:44;;;;;;;3.25;2.17;;;;;;;24.42;30.02;101312.31;5057342;28;20503;-80
2022/06/04 01:48:13;;;;;;;4.05;2.20;;;;;;;24.42;29.74;101306.75;5050431;28;20359;-80
2022/06/04 01:50:45;;;;;;;3.10;2.30;;;;;;;24.41;30.08;101305.91;5058872;28;20495;-80
2022/06/04 01:53:15;;;;;;;3.03;2.10;;;;;;;24.37;29.92;101310.09;5055545;28;20052;-79
2022/06/04 01:55:51;;;;;;;3.60;2.25;;;;;;;24.40;30.32;101322.72;5059095;28;20135;-80
2022/06/04 01:58:47;;;;;;;3.60;2.25;;;;;;;24.33;29.96;101321.72;5049540;28;20107;-80
2022/06/04 02:01:19;;;;;;;4.28;2.03;;;;;;;24.36;30.12;101316.69;5049987;28;20147;-80
2022/06/04 02:03:53;;;;;;;2.92;1.92;;;;;;;24.35;30.15;101317.72;5056981;28;20106;-80
2022/06/04 02:06:30;;;;;;;3.33;2.08;;;;;;;24.37;30.27;101317.56;5057652;28;20669;-80
2022/06/04 02:09:20;;;;;;;3.88;2.15;;;;;;;24.34;29.99;101320.69;5052705;28;20132;-80
2022/06/04 02:11:52;;;;;;;3.88;2.28;;;;;;;24.32;30.01;101317.22;5054583;28;20053;-80
2022/06/04 02:14:19;;;;;;;3.58;2.47;;;;;;;24.26;30.42;101322.44;5068146;28;20048;-80
2022/06/04 02:16:51;;;;;;;2.83;1.95;;;;;;;24.30;30.00;101320.16;5053982;28;20123;-80
2022/06/04 02:19:18;;;;;;;4.43;2.47;;;;;;;24.24;30.34;101313.44;5054559;28;20080;-80
2022/06/04 02:21:45;;;;;;;3.22;2.05;;;;;;;24.25;30.14;101314.31;5062368;28;20235;-80
2022/06/04 02:24:11;;;;;;;3.40;2.33;;;;;;;24.23;29.96;101308.94;5057317;28;20086;-80
2022/06/04 02:26:41;;;;;;;2.90;2.08;;;;;;;24.24;30.38;101305.09;5058283;28;20139;-80
2022/06/04 02:29:08;;;;;;;3.50;2.33;;;;;;;24.21;30.26;101301.84;5052866;28;20577;-79
2022/06/04 02:31:41;;;;;;;3.65;2.20;;;;;;;24.18;30.22;101300.25;5043436;28;20159;-80
2022/06/04 02:34:44;;;;;;;3.72;2.15;;;;;;;24.19;30.64;101304.75;5060928;23;20045;-79
2022/06/04 02:37:29;;;;;;;4.20;2.28;;;;;;;24.12;30.43;101295.44;5061494;28;20051;-80
2022/06/04 02:40:07;;;;;;;4.03;2.10;;;;;;;24.12;30.27;101295.44;5061316;28;20128;-80
2022/06/04 02:42:43;;;;;;;3.15;1.95;;;;;;;24.09;30.52;101295.78;5066750;28;20060;-80
2022/06/04 02:45:24;;;;;;;3.25;2.20;;;;;;;24.09;30.54;101300.47;5057012;28;20044;-80
2022/06/04 02:48:04;;;;;;;4.07;2.30;;;;;;;24.07;30.55;101292.31;5050701;28;20069;-80
2022/06/04 02:50:50;;;;;;;3.15;2.00;;;;;;;24.03;30.70;101303.97;5042854;28;20053;-80
2022/06/04 02:53:18;;;;;;;3.45;2.40;;;;;;;24.02;30.39;101302.22;5049402;28;20079;-80
2022/06/04 02:55:50;;;;;;;3.92;2.35;;;;;;;24.03;30.54;101299.28;5070664;28;20065;-82
2022/06/04 02:58:19;;;;;;;3.65;2.03;;;;;;;24.00;31.08;101290.44;5063727;28;20513;-80
2022/06/04 03:00:48;;;;;;;4.22;2.40;;;;;;;24.00;30.85;101287.66;5049542;28;20051;-81
2022/06/04 03:03:15;;;;;;;3.30;2.50;;;;;;;23.98;30.56;101270.34;5041807;28;20463;-81
2022/06/04 03:05:59;;;;;;;4.10;2.35;;;;;;;23.97;30.92;101258.38;5052141;28;20090;-81
2022/06/04 03:08:32;;;;;;;4.28;2.58;;;;;;;23.95;31.01;101273.47;5043203;28;20491;-81
2022/06/04 03:10:59;;;;;;;4.30;2.13;;;;;;;23.87;30.74;101266.94;5043450;28;20044;-81
2022/06/04 03:13:26;;;;;;;4.70;2.55;;;;;;;23.86;30.95;101267.09;5045311;28;20134;-80
2022/06/04 03:15:53;;;;;;;3.67;2.53;;;;;;;23.83;30.77;101261.91;5065476;28;20179;-82
2022/06/04 03:18:19;;;;;;;3.65;2.40;;;;;;;23.79;30.98;101263.31;5039132;28;20045;-81
2022/06/04 03:20:47;;;;;;;3.78;2.30;;;;;;;23.76;31.01;101261.75;5055713;28;20056;-81
2022/06/04 03:23:15;;;;;;;3.58;2.78;;;;;;;23.74;30.84;101241.66;5050201;28;20410;-79
2022/06/04 03:25:42;;;;;;;3.60;2.40;;;;;;;23.68;30.92;101247.91;5056171;28;20542;-81
2022/06/04 03:28:09;;;;;;;3.55;2.38;;;;;;;23.64;31.23;101257.63;5053543;28;20080;-81
2022/06/04 03:30:36;;;;;;;4.10;2.60;;;;;;;23.60;31.22;101264.56;5059425;28;20045;-80
2022/06/04 03:33:03;;;;;;;4.53;2.50;;;;;;;23.57;31.22;101266.81;5066998;28;20052;-79
2022/06/04 03:35:31;;;;;;;3.70;2.50;;;;;;;23.52;31.13;101270.13;5053254;28;20044;-79
2022/06/04 03:37:57;;;;;;;4.28;2.58;;;;;;;23.48;31.51;101274.25;5046605;28;20055;-80
2022/06/04 03:40:24;;;;;;;3.95;2.22;;;;;;;23.45;31.60;101269.09;5032698;28;20095;-79
2022/06/04 03:42:51;;;;;;;4.43;2.65;;;;;;;23.42;31.61;101266.66;5048349;28;20431;-79
2022/06/04 03:45:17;;;;;;;4.32;2.80;;;;;;;23.38;31.83;101276.38;5035880;28;20098;-80
2022/06/04 03:47:44;;;;;;;4.07;2.63;;;;;;;23.33;31.78;101285.19;5053499;28;20788;-79
2022/06/04 03:50:17;;;;;;;4.30;2.83;;;;;;;23.32;31.68;101294.53;5034911;28;20470;-78
2022/06/04 03:52:45;;;;;;;5.13;2.72;;;;;;;23.26;31.68;101295.25;5047280;28;20053;-79
2022/06/04 03:55:14;;;;;;;3.58;2.35;;;;;;;23.22;31.51;101296.66;5042194;28;20041;-78
2022/06/04 03:57:45;;;;;;;4.75;2.80;;;;;;;23.23;31.98;101311.34;5058126;28;20527;-79
2022/06/04 04:00:16;;;;;;;3.85;2.47;;;;;;;23.20;32.26;101304.28;5039946;28;20052;-79
2022/06/04 04:02:46;;;;;;;3.90;2.72;;;;;;;23.15;31.98;101310.31;5053100;28;20124;-78
2022/06/04 04:05:17;;;;;;;4.68;2.95;;;;;;;23.12;31.94;101316.22;5045341;28;20049;-79
2022/06/04 04:07:43;;;;;;;4.25;2.90;;;;;;;23.06;31.98;101308.56;5053288;28;20041;-79
2022/06/04 04:10:11;;;;;;;4.18;2.65;;;;;;;23.04;31.99;101321.75;5039480;28;20057;-78
2022/06/04 04:12:40;;;;;;;4.78;2.67;;;;;;;23.03;32.14;101316.38;5078647;28;20065;-78
2022/06/04 04:15:08;;;;;;;3.40;2.38;;;;;;;22.99;32.26;101314.97;5053939;28;20080;-80
2022/06/04 04:17:39;;;;;;;4.10;2.42;;;;;;;22.97;32.41;101317.06;5052618;28;20459;-79
2022/06/04 04:20:14;;;;;;;4.00;2.60;;;;;;;22.97;32.71;101337.34;5070119;28;20044;-79
2022/06/04 04:22:42;;;;;;;4.03;2.40;;;;;;;22.95;32.65;101330.22;5035079;28;20124;-79
2022/06/04 04:25:10;;;;;;;3.80;2.47;;;;;;;22.94;32.28;101329.34;5050232;28;20077;-79
2022/06/04 04:27:38;;;;;;;4.00;2.55;;;;;;;22.93;32.50;101322.06;5048072;28;20047;-80
2022/06/04 04:30:07;;;;;;;4.85;2.40;;;;;;;22.96;32.60;101330.06;5038944;28;20105;-80
2022/06/04 04:32:36;;;;;;;3.28;2.45;;;;;;;22.90;32.54;101329.84;5057893;28;20566;-81
2022/06/04 04:35:06;;;;;;;3.60;2.47;;;;;;;22.95;32.41;101325.56;5064907;28;20118;-80
2022/06/04 04:37:32;;;;;;;4.03;2.65;;;;;;;22.92;32.59;101325.00;5033963;28;20052;-80
2022/06/04 04:39:59;;;;;;;3.75;2.55;;;;;;;22.90;32.75;101330.72;5049060;28;20045;-81
2022/06/04 04:42:26;;;;;;;4.35;2.60;;;;;;;22.90;32.44;101327.06;5039981;28;20112;-79
2022/06/04 04:44:52;;;;;;;4.70;2.47;;;;;;;22.89;33.17;101317.06;5063000;28;20254;-80
2022/06/04 04:47:19;;;;;;;5.38;2.72;;;;;;;22.88;33.03;101324.50;5032840;28;20507;-81
2022/06/04 04:49:48;;;;;;;4.97;2.67;;;;;;;22.90;32.96;101327.06;5062883;28;20132;-82
2022/06/04 04:52:15;;;;;;;3.85;2.40;;;;;;;22.85;32.89;101324.84;5033477;28;20076;-80
2022/06/04 04:54:41;;;;;;;4.38;2.50;;;;;;;22.85;32.71;101326.75;5054101;28;20041;-81
2022/06/04 04:57:08;;;;;;;4.32;2.50;;;;;;;22.83;32.81;101337.97;5031098;28;20510;-81
2022/06/04 04:59:35;;;;;;;4.43;2.65;;;;;;;22.83;32.69;101337.97;5033215;28;20051;-81
2022/06/04 05:02:02;;;;;;;4.65;2.58;;;;;;;22.80;32.69;101341.09;5051884;28;20481;-79
2022/06/04 05:04:28;;;;;;;4.15;2.63;;;;;;;22.80;33.13;101348.53;5050299;28;20534;-81
2022/06/04 05:06:55;;;;;;;3.65;2.55;;;;;;;22.79;33.02;101363.41;5070817;28;20072;-81
2022/06/04 05:09:21;;;;;;;4.10;2.47;;;;;;;22.80;32.68;101366.03;5045969;28;20129;-81
2022/06/04 05:11:49;;;;;;;3.55;2.30;;;;;;;22.80;32.91;101362.38;5051252;28;20463;-80
2022/06/04 05:14:17;;;;;;;4.43;2.55;;;;;;;22.79;33.30;101363.41;5031516;28;20276;-80
2022/06/04 05:16:43;;;;;;;3.28;2.30;;;;;;;22.83;33.23;101364.78;5050325;28;20053;-81
2022/06/04 05:19:10;;;;;;;3.97;2.78;;;;;;;22.82;33.23;101368.59;5031892;28;20057;-80
2022/06/04 05:21:52;;;;;;;4.95;3.03;;;;;;;22.88;33.32;101374.34;5044662;28;20075;-81
2022/06/04 05:24:21;;;;;;;4.07;2.58;;;;;;;22.87;33.27;101368.97;5052429;28;20120;-80
2022/06/04 05:26:49;;;;;;;3.60;2.33;;;;;;;22.88;33.10;101368.81;5052826;28;20128;-81
2022/06/04 05:29:17;;;;;;;4.13;2.55;;;;;;;22.89;33.30;101376.09;5041891;28;20143;-80
2022/06/04 05:31:45;;;;;;;4.28;2.45;;;;;;;22.90;33.44;101374.16;5046321;28;20592;-80
2022/06/04 05:34:14;;;;;;;3.60;2.65;;;;;;;22.94;33.21;101370.03;5035074;28;20049;-81
2022/06/04 05:36:44;;;;;;;4.20;3.00;;;;;;;22.94;33.06;101378.34;5056349;28;20124;-80
2022/06/04 05:39:12;;;;;;;3.53;2.60;;;;;;;22.95;32.93;101380.94;5042780;28;20145;-81
2022/06/04 05:41:39;;;;;;;3.13;2.50;;;;;;;22.92;33.04;101384.03;5067033;28;20371;-80
2022/06/04 05:44:07;;;;;;;3.40;2.38;;;;;;;22.93;33.56;101384.91;5045657;28;20508;-80
2022/06/04 05:46:34;;;;;;;3.90;2.55;;;;;;;22.94;33.20;101383.88;5047936;28;20491;-81
2022/06/04 05:49:01;;;;;;;4.38;2.58;;;;;;;22.95;33.26;101385.59;5049506;28;20551;-80
2022/06/04 05:51:30;;;;;;;5.53;2.30;;;;;;;22.97;33.45;101381.66;5047457;28;20128;-80
2022/06/04 05:53:57;;;;;;;4.60;2.60;;;;;;;22.99;33.28;101385.09;5049419;28;20148;-81
2022/06/04 05:56:32;;;;;;;4.57;2.50;;;;;;;23.01;33.42;101383.03;5038842;28;20057;-79
2022/06/04 05:59:09;;;;;;;;;;;;;;;22.77;34.08;101382.97;5051011;28;20044;-79
2022/06/04 06:01:38;;;;;;;3.92;2.55;;;;;;;23.00;33.47;101386.81;5036611;28;19921;-81
2022/06/04 06:04:10;;;;;;;4.05;2.50;;;;;;;23.07;33.17;101387.88;5046542;28;20684;-81
2022/06/04 06:06:41;;;;;;;4.38;2.33;;;;;;;23.10;33.26;101400.53;5035124;28;20045;-80
2022/06/04 06:09:10;;;;;;;3.95;2.60;;;;;;;23.08;33.32;101400.69;5034098;28;20049;-80
2022/06/04 06:11:37;;;;;;;3.65;2.53;;;;;;;23.07;33.50;101400.84;5050415;28;20072;-81
2022/06/04 06:14:07;;;;;;;3.95;2.95;;;;;;;23.08;33.17;101394.28;5052300;28;20049;-80
2022/06/04 06:16:46;;;;;;;3.50;2.60;;;;;;;23.12;33.48;101402.09;5041906;28;20037;-81
2022/06/04 06:19:22;;;;;;;4.68;2.53;;;;;;;23.12;33.43;101412.31;5025518;28;20060;-81
2022/06/04 06:21:57;;;;;;;4.53;2.63;;;;;;;23.19;34.09;101410.56;5048516;28;20388;-79
2022/06/04 06:24:23;;;;;;;3.72;2.63;;;;;;;23.22;33.94;101409.38;5048673;28;20126;-79
2022/06/04 06:26:53;;;;;;;3.35;2.55;;;;;;;23.29;33.72;101410.41;5049519;28;20053;-79
2022/06/04 06:29:23;;;;;;;4.88;3.10;;;;;;;23.33;33.50;101423.75;5039858;28;20041;-80
2022/06/04 06:31:51;;;;;;;3.30;2.50;;;;;;;23.36;33.89;101414.22;5055491;28;20640;-79
2022/06/04 06:34:17;;;;;;;4.68;2.78;;;;;;;23.41;33.39;101425.66;5041663;28;20177;-78
2022/06/04 06:36:44;;;;;;;4.38;2.60;;;;;;;23.45;33.74;101427.06;5054353;28;20056;-80
2022/06/04 06:39:10;;;;;;;4.13;2.60;;;;;;;23.48;33.37;101426.69;5053114;28;20057;-81
2022/06/04 06:41:37;;;;;;;4.65;2.67;;;;;;;23.52;33.56;101434.53;5059441;28;20063;-80
2022/06/04 06:44:05;;;;;;;3.28;2.60;;;;;;;23.56;33.79;101437.81;5080740;28;20048;-79
2022/06/04 06:46:35;;;;;;;4.82;2.53;;;;;;;23.60;33.14;101436.44;5063885;28;20102;-79
2022/06/04 06:49:13;;;;;;;3.85;2.67;;;;;;;23.64;33.74;101443.38;5042359;28;20128;-81
2022/06/04 06:51:47;;;;;;;3.60;2.72;;;;;;;23.64;33.25;101448.03;5063754;28;20091;-80
2022/06/04 06:54:15;;;;;;;3.72;2.67;;;;;;;23.62;33.44;101450.16;5044874;28;20049;-81
2022/06/04 06:56:43;;;;;;;4.75;3.10;;;;;;;23.65;33.26;101460.88;5053485;28;20083;-79
2022/06/04 06:59:10;;;;;;;4.13;2.90;;;;;;;23.64;33.52;101453.59;5050042;28;20102;-81
2022/06/04 07:01:37;;;;;;;4.40;2.95;;;;;;;23.64;33.67;101460.00;5050429;28;20122;-80
2022/06/04 07:04:05;;;;;;;5.00;2.90;;;;;;;23.66;33.79;101460.69;5051749;28;20045;-80
2022/06/04 07:06:36;;;;;;;3.60;2.60;;;;;;;23.69;33.51;101454.81;5045489;28;20073;-80
2022/06/04 07:09:06;;;;;;;3.90;2.88;;;;;;;23.70;33.47;101455.69;5067466;28;20569;-80
2022/06/04 07:11:33;;;;;;;4.68;2.53;;;;;;;23.69;33.40;101452.06;5047438;28;20518;-78
2022/06/04 07:14:00;;;;;;;3.78;2.55;;;;;;;23.73;33.88;101452.56;5048500;28;20053;-78
2022/06/04 07:16:27;;;;;;;4.47;2.67;;;;;;;23.74;33.52;101455.16;5043558;28;20172;-81
2022/06/04 07:18:54;;;;;;;4.60;2.75;;;;;;;23.78;33.61;101450.16;5035482;28;20495;-80
2022/06/04 07:21:20;;;;;;;3.30;2.50;;;;;;;23.81;33.95;101442.31;5043095;28;20456;-80
2022/06/04 07:23:47;;;;;;;4.20;2.80;;;;;;;23.85;34.12;101434.53;5053632;28;20059;-79
2022/06/04 07:26:14;;;;;;;3.15;2.50;;;;;;;23.89;33.78;101428.44;5039177;28;20086;-81
2022/06/04 07:28:44;;;;;;;4.30;2.92;;;;;;;23.95;33.89;101437.13;5041828;28;20096;-80
2022/06/04 07:31:12;;;;;;;3.80;2.80;;;;;;;23.99;33.55;101435.72;5034627;28;20436;-79
2022/06/04 07:33:41;;;;;;;4.07;2.75;;;;;;;24.03;33.38;101443.53;5045286;28;20124;-80
2022/06/04 07:36:07;;;;;;;3.55;2.78;;;;;;;24.07;33.93;101441.25;5049314;28;20067;-80
2022/06/04 07:38:34;;;;;;;3.90;2.85;;;;;;;24.12;34.02;101448.03;5040983;28;20055;-80
2022/06/04 07:41:00;;;;;;;4.43;2.78;;;;;;;24.17;33.81;101441.94;5039069;28;20405;-80
2022/06/04 07:43:27;;;;;;;5.15;2.60;;;;;;;24.21;33.58;101446.16;5051982;28;20096;-78
2022/06/04 07:45:53;;;;;;;3.90;2.60;;;;;;;24.26;33.81;101454.78;5045112;28;20049;-80
2022/06/04 07:48:20;;;;;;;4.63;3.08;;;;;;;24.29;33.58;101436.94;5035402;28;20261;-79
2022/06/04 07:50:54;;;;;;;4.40;2.97;;;;;;;24.35;33.58;101447.31;5048668;28;20054;-81
2022/06/04 07:53:20;;;;;;;3.92;2.92;;;;;;;24.40;33.56;101456.81;5031017;28;20484;-80
2022/06/04 07:55:47;;;;;;;3.55;2.58;;;;;;;24.45;33.82;101461.88;5065747;28;20045;-80
2022/06/04 07:58:14;;;;;;;3.70;2.72;;;;;;;24.49;34.28;101461.31;5052201;28;20074;-79
2022/06/04 08:00:40;;;;;;;4.68;2.92;;;;;;;24.53;34.04;101461.84;5050313;28;20235;-81
2022/06/04 08:03:07;;;;;;;5.00;3.00;;;;;;;24.56;33.43;101470.66;5051648;28;20048;-81
2022/06/04 08:05:34;;;;;;;4.70;3.20;;;;;;;24.61;33.34;101473.78;5053404;28;20053;-79
2022/06/04 08:08:08;;;;;;;4.63;2.67;;;;;;;24.63;33.66;101470.78;5042123;28;20044;-80
2022/06/04 08:10:35;;;;;;;4.30;2.95;;;;;;;24.65;33.36;101455.69;5038399;28;20065;-81
2022/06/04 08:13:02;;;;;;;5.38;3.33;;;;;;;24.68;33.29;101457.25;5062213;28;20413;-81
2022/06/04 08:15:28;;;;;;;4.80;3.10;;;;;;;24.70;33.40;101463.50;5040198;28;20112;-79
2022/06/04 08:17:55;;;;;;;4.05;2.83;;;;;;;24.71;33.64;101458.81;5066204;28;20606;-81
2022/06/04 08:20:22;;;;;;;3.38;2.58;;;;;;;24.74;33.75;101464.88;5035118;28;20053;-81
2022/06/04 08:22:49;;;;;;;3.83;2.83;;;;;;;24.76;33.38;101453.59;5045072;28;20443;-81
2022/06/04 08:25:16;;;;;;;4.75;3.00;;;;;;;24.78;33.75;101449.59;5049277;28;20049;-81
2022/06/04 08:27:44;;;;;;;4.57;2.70;;;;;;;24.82;33.53;101447.28;5046161;28;20063;-81
2022/06/04 08:30:12;;;;;;;5.22;3.10;;;;;;;24.85;33.20;101438.63;5034912;28;20065;-82
2022/06/04 08:32:39;;;;;;;4.70;3.22;;;;;;;24.85;33.73;101436.69;5048213;28;20109;-80
2022/06/04 08:35:06;;;;;;;4.13;3.03;;;;;;;24.88;33.31;101433.53;5071409;22;21267;-71
2022/06/04 08:37:33;;;;;;;4.05;3.10;;;;;;;24.91;33.26;101437.91;5057871;28;20679;-71
2022/06/04 08:40:00;;;;;;;4.93;3.05;;;;;;;24.94;33.45;101443.97;5063806;28;20052;-70
2022/06/04 08:42:51;;;;;;;4.47;2.83;;;;;;;25.02;33.84;101448.63;5058750;28;20531;-70
2022/06/04 08:45:17;;;;;;;3.72;2.65;;;;;;;25.02;33.96;101445.84;5042178;28;20045;-71
2022/06/04 08:47:48;;;;;;;5.22;2.78;;;;;;;25.10;33.71;101443.03;5045333;28;20053;-72
2022/06/04 08:50:25;;;;;;;4.35;2.70;;;;;;;25.16;33.82;101433.94;5050057;28;20128;-71
2022/06/04 08:52:55;;;;;;;5.10;3.40;;;;;;;25.19;33.60;101436.38;5048562;28;20080;-71
2022/06/04 08:58:50;;;;;;;4.75;3.13;;;;;;;25.30;33.35;101438.72;5039522;28;20037;-71
2022/06/04 09:01:26;;;;;;;4.15;3.15;;;;;;;25.30;33.13;101440.63;5045749;28;20053;-70
2022/06/04 09:04:01;;;;;;;4.70;3.00;;;;;;;25.40;33.48;101452.38;5032387;28;20068;-73
2022/06/04 09:06:46;;;;;;;4.93;2.83;;;;;;;25.44;33.64;101450.09;5043069;28;20044;-70
2022/06/04 09:09:24;;;;;;;4.70;3.20;;;;;;;25.45;33.18;101451.84;5034745;28;20124;-73
2022/06/04 09:12:01;;;;;;;4.43;3.20;;;;;;;25.49;33.49;101458.75;5033101;28;20128;-72
2022/06/04 09:14:28;;;;;;;4.47;3.28;;;;;;;25.48;32.97;101455.09;5040901;28;20069;-71
2022/06/04 09:17:16;;;;;;;3.55;2.90;;;;;;;25.53;33.22;101465.69;5042196;28;20145;-72
2022/06/04 09:19:48;;;;;;;4.10;3.10;;;;;;;25.57;33.56;101476.22;5037043;28;20038;-70
2022/06/04 09:22:23;;;;;;;4.22;2.63;;;;;;;25.61;33.21;101485.94;5036652;28;20132;-72
2022/06/04 09:24:50;;;;;;;5.10;2.90;;;;;;;25.64;33.40;101484.72;5012309;28;20128;-70
2022/06/04 09:28:03;;;;;;;4.57;2.95;;;;;;;25.61;33.60;101491.50;5046083;28;20179;-71
2022/06/04 09:30:37;;;;;;;4.00;2.97;;;;;;;25.73;33.56;101484.47;4982531;28;20554;-70
2022/06/04 09:33:13;;;;;;;4.45;3.47;;;;;;;25.78;33.27;101495.91;4989924;28;20474;-72
2022/06/04 09:35:41;;;;;;;5.28;3.38;;;;;;;25.78;33.05;101495.91;4986603;28;20050;-59
2022/06/04 09:38:26;;;;;;;4.32;3.38;;;;;;;25.82;33.21;101496.41;4987992;28;20054;-59
2022/06/04 09:41:02;;;;;;;4.40;3.17;;;;;;;25.83;32.73;101495.34;4988509;28;20626;-57
2022/06/04 09:43:30;;;;;;;4.47;3.15;;;;;;;25.80;33.15;101495.72;4988103;28;20143;-57
2022/06/04 09:46:07;;;;;;;4.78;3.17;;;;;;;25.83;33.04;101491.72;4988374;28;20053;-59
2022/06/04 09:48:38;;;;;;;3.85;3.17;;;;;;;25.83;32.46;101494.50;4987135;28;20054;-61
2022/06/04 09:51:15;;;;;;;4.25;3.10;;;;;;;25.82;32.71;101495.53;4987888;28;20050;-61
2022/06/04 09:53:44;;;;;;;4.55;3.38;;;;;;;25.83;32.56;101500.06;4988042;28;20137;-60
2022/06/04 09:56:14;;;;;;;4.85;3.33;;;;;;;25.82;33.08;101493.63;4988280;28;20129;-60
2022/06/04 09:58:48;;;;;;;4.93;3.38;;;;;;;25.82;33.07;101488.06;4988202;28;20055;-60
2022/06/04 10:01:17;;;;;;;4.15;3.05;;;;;;;25.81;32.97;101485.47;5020624;28;20056;-59
2022/06/04 10:03:57;;;;;;;4.35;3.40;;;;;;;25.83;33.13;101489.78;5049564;28;20115;-58
2022/06/04 10:06:25;;;;;;;5.03;3.53;;;;;;;25.85;32.91;101498.81;5049833;28;20073;-60
2022/06/04 10:11:52;;;;;;;6.68;3.40;;;;;;;25.97;33.35;101490.88;5050137;28;20080;-58
2022/06/04 10:14:39;;;;;;;4.40;3.20;;;;;;;26.01;33.21;101501.47;5049010;28;20127;-60
2022/06/04 10:17:17;;;;;;;4.47;3.33;;;;;;;26.10;33.24;101496.69;5049979;28;20132;-62
2022/06/04 10:19:54;;;;;;;5.25;3.55;;;;;;;26.19;33.25;101494.69;5049082;28;20139;-60
2022/06/04 10:22:22;;;;;;;4.00;3.13;;;;;;;26.24;33.19;101492.19;5048511;28;20093;-60
2022/06/04 10:24:59;;;;;;;4.72;3.47;;;;;;;26.37;32.97;101492.44;5049274;28;20124;-60
2022/06/04 10:27:38;;;;;;;6.72;3.45;;;;;;;26.48;33.43;101500.34;5048361;28;20136;-59
2022/06/04 10:30:24;;;;;;;5.25;3.28;;;;;;;26.56;33.32;101493.81;5050185;28;20148;-61
2022/06/04 10:33:14;;;;;;;4.55;3.70;;;;;;;26.64;33.13;101499.28;5037990;28;20041;-58
2022/06/04 10:35:54;;;;;;;4.90;3.50;;;;;;;26.75;33.21;101491.31;5029393;28;20667;-58
2022/06/04 10:38:39;;;;;;;5.10;3.95;;;;;;;26.83;33.13;101496.78;5028876;28;20096;-61
2022/06/04 10:41:19;;;;;;;4.78;3.63;;;;;;;26.97;32.90;101510.94;5029486;28;20089;-59
2022/06/04 10:44:04;;;;;;;4.90;3.63;;;;;;;27.00;32.57;101502.19;5035595;28;20569;-60
2022/06/04 10:47:03;;;;;;;5.93;4.07;;;;;;;27.10;32.63;101506.38;5048570;28;20705;-59
2022/06/04 10:49:47;;;;;;;5.32;3.35;;;;;;;27.18;32.33;101503.47;5048291;28;20041;-64
2022/06/04 10:52:31;;;;;;;5.18;3.55;;;;;;;27.24;32.29;101499.06;5048812;28;20644;-68
2022/06/04 10:55:17;;;;;;;4.70;3.88;;;;;;;27.30;31.93;101503.84;5045190;28;20065;-70
2022/06/04 10:58:10;;;;;;;5.50;4.03;;;;;;;27.33;32.38;101503.47;5022322;28;20473;-70
2022/06/04 11:00:52;;;;;;;4.57;3.42;;;;;;;27.42;32.28;101493.94;5035885;28;20128;-70
2022/06/04 11:03:43;;;;;;;5.72;4.10;;;;;;;27.45;32.18;101484.28;5044712;28;20048;-71
2022/06/04 11:06:21;;;;;;;4.85;3.60;;;;;;;27.55;31.84;101484.88;5041406;28;20080;-69
2022/06/04 11:08:57;;;;;;;5.88;3.90;;;;;;;27.62;32.19;101489.44;5043128;28;20128;-69
2022/06/04 11:11:34;;;;;;;5.50;3.63;;;;;;;27.69;32.25;101485.84;5037034;28;20049;-73
2022/06/04 11:14:16;;;;;;;4.75;3.97;;;;;;;27.75;32.09;101487.88;5041997;28;20044;-70
2022/06/04 11:16:50;;;;;;;4.28;3.65;;;;;;;27.80;31.93;101486.19;5046786;28;20099;-69
2022/06/04 11:19:24;;;;;;;5.47;3.80;;;;;;;27.86;31.87;101488.19;5038640;28;20034;-70
2022/06/04 11:21:59;;;;;;;5.65;4.20;;;;;;;27.96;31.67;101485.06;5030911;28;20076;-70
2022/06/04 11:24:49;;;;;;;4.93;3.55;;;;;;;28.00;31.77;101486.41;5042971;28;20099;-71
2022/06/04 11:27:37;;;;;;;5.72;3.92;;;;;;;28.08;31.51;101488.19;5044553;28;20131;-69
2022/06/04 11:30:15;;;;;;;4.88;3.72;;;;;;;28.17;31.37;101487.84;5046551;28;20052;-70
2022/06/04 11:32:55;;;;;;;4.43;3.55;;;;;;;28.26;31.85;101482.97;5045632;28;20075;-69
2022/06/04 11:35:46;;;;;;;4.13;3.42;;;;;;;28.29;31.26;101491.81;5047513;28;20087;-69
2022/06/04 11:38:22;;;;;;;5.18;3.85;;;;;;;28.40;31.19;101487.59;5032562;28;20123;-69
2022/06/04 11:41:05;;;;;;;4.55;3.42;;;;;;;28.47;31.32;101491.31;5039700;28;20132;-70
2022/06/04 11:43:37;;;;;;;3.90;3.50;;;;;;;28.52;31.55;101487.88;5027190;28;20289;-70
2022/06/04 11:46:19;;;;;;;4.35;3.42;;;;;;;28.65;31.11;101482.41;5041051;28;20045;-70
2022/06/04 11:49:00;;;;;;;4.05;3.35;;;;;;;28.71;31.28;101484.34;5037581;28;20043;-70
2022/06/04 11:51:57;;;;;;;4.57;3.90;;;;;;;28.75;30.67;101486.53;5048038;28;20411;-71
2022/06/04 11:54:36;;;;;;;5.70;3.58;;;;;;;28.86;30.53;101490.72;5041364;28;20033;-68
2022/06/04 11:57:03;;;;;;;4.80;3.15;;;;;;;28.90;30.78;101482.78;5037940;28;20424;-69
2022/06/04 11:59:48;;;;;;;4.25;3.30;;;;;;;28.97;30.41;101480.88;5035345;28;20045;-70
2022/06/04 12:02:33;;;;;;;4.47;3.75;;;;;;;29.02;30.71;101481.97;5046270;28;20076;-71
2022/06/04 12:04:59;;;;;;;5.50;3.67;;;;;;;29.07;30.16;101482.19;5047769;28;20075;-71
2022/06/04 12:07:51;;;;;;;4.00;3.40;;;;;;;29.13;30.08;101478.59;5046377;28;20099;-71